createdAt,value
2016-07-02T00:00:39.978Z,0
2016-07-02T00:01:39.989Z,0
2016-07-02T00:02:39.992Z,0
2016-07-02T00:03:39.990Z,0
2016-07-02T00:04:39.983Z,0
2016-07-02T00:05:39.987Z,0
2016-07-02T00:06:39.976Z,0
2016-07-02T00:07:40.071Z,0
2016-07-02T00:08:43.014Z,0
2016-07-02T00:10:41.461Z,0
2016-07-02T00:11:40.839Z,0
2016-07-02T00:12:39.976Z,0
2016-07-02T00:13:40.007Z,0
2016-07-02T00:14:39.980Z,0
2016-07-02T00:15:39.983Z,0
2016-07-02T00:16:39.975Z,0
2016-07-02T00:18:41.309Z,0
2016-07-02T00:19:42.937Z,0
2016-07-02T00:20:39.975Z,0
2016-07-02T00:21:41.184Z,0
2016-07-02T00:22:39.974Z,0
2016-07-02T00:23:39.985Z,0
2016-07-02T00:24:39.979Z,0
2016-07-02T00:25:39.983Z,0
2016-07-02T00:26:39.973Z,0
2016-07-02T00:27:39.979Z,0
2016-07-02T00:28:40.590Z,0
2016-07-02T00:29:39.980Z,0
2016-07-02T00:30:39.978Z,0
2016-07-02T00:31:39.983Z,0
2016-07-02T00:32:39.976Z,0
2016-07-02T00:33:39.982Z,0
2016-07-02T00:34:39.977Z,0
2016-07-02T00:35:39.973Z,0
2016-07-02T00:36:39.969Z,0
2016-07-02T00:37:39.969Z,0
2016-07-02T00:38:39.969Z,0
2016-07-02T00:39:39.981Z,0
2016-07-02T00:40:39.972Z,0
2016-07-02T00:41:39.967Z,0
2016-07-02T00:42:39.970Z,0
2016-07-02T00:43:39.966Z,0
2016-07-02T00:44:39.973Z,0
2016-07-02T00:45:39.969Z,0
2016-07-02T00:46:39.963Z,0
2016-07-02T00:47:39.951Z,0
2016-07-02T00:48:39.951Z,0
2016-07-02T00:49:39.965Z,0
2016-07-02T00:50:39.957Z,0
2016-07-02T00:51:39.966Z,0
2016-07-02T00:52:39.955Z,0
2016-07-02T00:53:39.965Z,0
2016-07-02T00:54:39.955Z,0
2016-07-02T00:55:39.962Z,0
2016-07-02T00:56:39.958Z,0
2016-07-02T00:57:39.957Z,0
2016-07-02T00:58:39.959Z,0
2016-07-02T00:59:39.949Z,0
2016-07-02T01:01:09.760Z,0
2016-07-02T01:01:40.976Z,0
2016-07-02T01:03:40.142Z,0
2016-07-02T01:04:39.948Z,0
2016-07-02T01:05:40.599Z,0
2016-07-02T01:06:40.060Z,0
2016-07-02T01:07:39.957Z,0
2016-07-02T01:08:39.953Z,0
2016-07-02T01:09:40.695Z,0
2016-07-02T01:10:40.000Z,0
2016-07-02T01:11:40.935Z,0
2016-07-02T01:12:41.200Z,0
2016-07-02T01:13:39.938Z,0
2016-07-02T01:14:40.496Z,0
2016-07-02T01:15:39.941Z,0
2016-07-02T01:16:39.945Z,0
2016-07-02T01:17:40.084Z,0
2016-07-02T01:18:39.939Z,0
2016-07-02T01:19:39.927Z,0
2016-07-02T01:20:39.939Z,0
2016-07-02T01:21:40.547Z,0
2016-07-02T01:22:40.540Z,0
2016-07-02T01:23:39.943Z,0
2016-07-02T01:24:39.945Z,0
2016-07-02T01:25:39.935Z,0
2016-07-02T01:26:41.923Z,0
2016-07-02T01:27:40.335Z,0
2016-07-02T01:28:42.392Z,0
2016-07-02T01:29:39.929Z,0
2016-07-02T01:30:41.858Z,0
2016-07-02T01:31:40.795Z,0
2016-07-02T01:32:39.928Z,0
2016-07-02T01:33:39.922Z,0
2016-07-02T01:34:39.928Z,0
2016-07-02T01:35:39.937Z,0
2016-07-02T01:36:42.319Z,0
2016-07-02T01:37:41.819Z,0
2016-07-02T01:38:40.830Z,0
2016-07-02T01:39:40.617Z,0
2016-07-02T01:40:40.188Z,0
2016-07-02T01:41:39.912Z,0
2016-07-02T01:42:39.927Z,0
2016-07-02T01:43:40.516Z,0
2016-07-02T01:44:39.915Z,0
2016-07-02T01:45:39.925Z,0
2016-07-02T01:46:39.914Z,0
2016-07-02T01:47:39.911Z,0
2016-07-02T01:48:39.914Z,0
2016-07-02T01:49:39.904Z,0
2016-07-02T01:50:39.912Z,0
2016-07-02T01:51:39.907Z,0
2016-07-02T01:52:39.918Z,0
2016-07-02T01:53:39.914Z,0
2016-07-02T01:54:39.900Z,0
2016-07-02T01:55:39.901Z,0
2016-07-02T01:56:39.891Z,4
2016-07-02T01:57:39.902Z,4
2016-07-02T01:58:39.909Z,4
2016-07-02T01:59:39.899Z,4
2016-07-02T02:00:39.891Z,0
2016-07-02T02:01:39.895Z,4
2016-07-02T02:02:39.897Z,4
2016-07-02T02:03:39.894Z,4
2016-07-02T02:04:39.885Z,4
2016-07-02T02:05:39.881Z,4
2016-07-02T02:06:39.889Z,8
2016-07-02T02:07:39.981Z,8
2016-07-02T02:08:39.881Z,8
2016-07-02T02:09:39.877Z,8
2016-07-02T02:10:39.884Z,8
2016-07-02T02:11:39.879Z,8
2016-07-02T02:12:39.876Z,12
2016-07-02T02:13:40.475Z,16
2016-07-02T02:14:39.871Z,12
2016-07-02T02:15:39.878Z,20
2016-07-02T02:16:39.873Z,20
2016-07-02T02:17:39.882Z,20
2016-07-02T02:18:40.877Z,24
2016-07-02T02:20:40.458Z,32
2016-07-02T02:22:40.313Z,40
2016-07-02T02:23:39.924Z,44
2016-07-02T02:24:39.869Z,52
2016-07-02T02:25:39.854Z,56
2016-07-02T02:26:39.863Z,60
2016-07-02T02:27:39.851Z,72
2016-07-02T02:28:40.961Z,76
2016-07-02T02:29:40.415Z,88
2016-07-02T02:30:55.845Z,96
2016-07-02T02:31:39.858Z,100
2016-07-02T02:32:39.850Z,112
2016-07-02T02:33:39.855Z,124
2016-07-02T02:34:39.849Z,136
2016-07-02T02:35:39.848Z,148
2016-07-02T02:36:39.864Z,164
2016-07-02T02:37:39.842Z,176
2016-07-02T02:38:39.841Z,192
2016-07-02T02:39:39.844Z,212
2016-07-02T02:40:39.832Z,228
2016-07-02T02:41:39.819Z,248
2016-07-02T02:42:39.834Z,268
2016-07-02T02:43:39.829Z,288
2016-07-02T02:44:39.829Z,308
2016-07-02T02:45:41.321Z,336
2016-07-02T02:46:41.458Z,360
2016-07-02T02:47:41.042Z,388
2016-07-02T02:48:41.289Z,412
2016-07-02T02:49:41.220Z,444
2016-07-02T02:50:40.783Z,476
2016-07-02T02:51:39.819Z,508
2016-07-02T02:52:39.825Z,548
2016-07-02T02:53:39.836Z,584
2016-07-02T02:54:41.800Z,624
2016-07-02T02:55:42.192Z,660
2016-07-02T02:56:41.024Z,700
2016-07-02T02:57:39.814Z,736
2016-07-02T02:58:40.534Z,780
2016-07-02T02:59:40.600Z,828
2016-07-02T03:00:39.808Z,876
2016-07-02T03:01:39.800Z,924
2016-07-02T03:02:39.798Z,980
2016-07-02T03:03:39.802Z,1032
2016-07-02T03:04:39.796Z,1088
2016-07-02T03:05:39.811Z,1144
2016-07-02T03:06:39.795Z,1196
2016-07-02T03:07:39.789Z,1248
2016-07-02T03:08:39.803Z,1296
2016-07-02T03:09:39.795Z,1352
2016-07-02T03:10:39.785Z,1408
2016-07-02T03:11:39.792Z,1468
2016-07-02T03:12:39.783Z,1528
2016-07-02T03:13:39.780Z,1588
2016-07-02T03:14:39.786Z,1660
2016-07-02T03:15:39.777Z,1728
2016-07-02T03:16:39.765Z,1804
2016-07-02T03:17:39.779Z,1876
2016-07-02T03:18:39.770Z,1940
2016-07-02T03:19:39.769Z,2004
2016-07-02T03:20:39.765Z,2072
2016-07-02T03:21:39.767Z,2136
2016-07-02T03:22:39.771Z,2216
2016-07-02T03:23:39.773Z,2360
2016-07-02T03:24:39.761Z,2588
2016-07-02T03:25:39.772Z,2864
2016-07-02T03:26:39.746Z,3128
2016-07-02T03:27:39.771Z,3332
2016-07-02T03:28:39.751Z,3484
2016-07-02T03:29:39.755Z,3592
2016-07-02T03:30:39.761Z,3692
2016-07-02T03:31:39.763Z,3772
2016-07-02T03:32:39.758Z,3680
2016-07-02T03:33:39.760Z,3732
2016-07-02T03:34:39.754Z,3976
2016-07-02T03:35:39.760Z,4132
2016-07-02T03:36:39.749Z,4256
2016-07-02T03:37:40.301Z,4364
2016-07-02T03:38:40.359Z,4484
2016-07-02T03:39:40.810Z,4600
2016-07-02T03:40:40.049Z,4720
2016-07-02T03:41:40.473Z,4852
2016-07-02T03:42:40.517Z,4992
2016-07-02T03:43:39.752Z,5172
2016-07-02T03:44:39.755Z,5704
2016-07-02T03:45:39.759Z,6440
2016-07-02T03:46:40.907Z,6880
2016-07-02T03:47:40.658Z,7020
2016-07-02T03:48:39.862Z,6976
2016-07-02T03:49:39.757Z,6916
2016-07-02T03:50:39.853Z,6808
2016-07-02T03:51:40.221Z,6896
2016-07-02T03:52:39.762Z,7088
2016-07-02T03:53:39.765Z,7388
2016-07-02T03:54:39.771Z,7796
2016-07-02T03:55:39.770Z,7932
2016-07-02T03:56:39.782Z,7896
2016-07-02T03:57:39.782Z,8104
2016-07-02T03:58:39.783Z,8312
2016-07-02T03:59:39.785Z,8360
2016-07-02T04:00:39.799Z,8472
2016-07-02T04:01:39.793Z,8900
2016-07-02T04:02:39.799Z,9396
2016-07-02T04:03:42.168Z,9508
2016-07-02T04:05:41.001Z,8920
2016-07-02T04:06:40.274Z,9532
2016-07-02T04:07:41.390Z,10280
2016-07-02T04:08:39.835Z,10740
2016-07-02T04:09:39.839Z,10608
2016-07-02T04:10:39.835Z,10044
2016-07-02T04:11:39.858Z,9824
2016-07-02T04:12:42.405Z,10164
2016-07-02T04:13:40.092Z,10696
2016-07-02T04:14:41.542Z,11556
2016-07-02T04:15:41.307Z,12140
2016-07-02T04:16:39.938Z,11900
2016-07-02T04:17:41.116Z,11552
2016-07-02T04:18:39.901Z,10840
2016-07-02T04:19:39.899Z,10784
2016-07-02T04:20:39.913Z,10704
2016-07-02T04:21:39.916Z,11256
2016-07-02T04:22:39.930Z,11688
2016-07-02T04:23:39.952Z,12416
2016-07-02T04:24:39.945Z,13864
2016-07-02T04:25:39.952Z,14240
2016-07-02T04:26:39.967Z,14624
2016-07-02T04:27:39.966Z,14944
2016-07-02T04:28:39.975Z,14560
2016-07-02T04:29:39.992Z,14720
2016-07-02T04:30:39.996Z,14944
2016-07-02T04:31:40.006Z,15360
2016-07-02T04:32:40.017Z,15488
2016-07-02T04:33:40.010Z,15392
2016-07-02T04:34:40.028Z,15264
2016-07-02T04:35:40.019Z,16576
2016-07-02T04:36:40.038Z,16640
2016-07-02T04:37:40.046Z,16928
2016-07-02T04:38:40.059Z,17120
2016-07-02T04:39:40.075Z,16608
2016-07-02T04:40:40.075Z,17504
2016-07-02T04:41:40.083Z,17664
2016-07-02T04:42:40.107Z,19296
2016-07-02T04:43:40.114Z,20096
2016-07-02T04:44:40.125Z,19072
2016-07-02T04:45:40.132Z,20160
2016-07-02T04:46:40.143Z,19552
2016-07-02T04:47:40.164Z,20032
2016-07-02T04:48:40.166Z,20992
2016-07-02T04:49:40.182Z,21120
2016-07-02T04:50:40.187Z,22272
2016-07-02T04:51:40.191Z,23104
2016-07-02T04:52:40.214Z,23936
2016-07-02T04:53:40.224Z,23840
2016-07-02T04:54:40.232Z,24704
2016-07-02T04:55:55.935Z,24928
2016-07-02T04:56:40.607Z,24192
2016-07-02T04:57:41.115Z,24576
2016-07-02T04:59:40.879Z,24992
2016-07-02T05:00:40.296Z,25760
2016-07-02T05:01:40.306Z,27040
2016-07-02T05:02:40.326Z,28960
2016-07-02T05:03:40.339Z,30208
2016-07-02T05:04:41.296Z,27840
2016-07-02T05:05:40.805Z,26048
2016-07-02T05:06:41.121Z,24960
2016-07-02T05:08:40.386Z,26016
2016-07-02T05:09:40.389Z,27520
2016-07-02T05:10:40.423Z,29280
2016-07-02T05:11:40.420Z,31424
2016-07-02T05:12:40.608Z,32960
2016-07-02T05:13:40.451Z,34336
2016-07-02T05:14:40.473Z,33184
2016-07-02T05:15:41.086Z,34272
2016-07-02T05:16:40.508Z,36064
2016-07-02T05:17:40.505Z,36704
2016-07-02T05:18:40.536Z,32160
2016-07-02T05:19:40.531Z,17728
2016-07-02T05:20:40.564Z,37280
2016-07-02T05:21:42.113Z,41952
2016-07-02T05:23:43.488Z,33792
2016-07-02T05:24:41.651Z,38240
2016-07-02T05:25:40.796Z,41824
2016-07-02T05:26:40.644Z,27616
2016-07-02T05:27:40.649Z,44384
2016-07-02T05:28:40.680Z,38880
2016-07-02T05:29:40.666Z,21760
2016-07-02T05:31:41.547Z,30944
2016-07-02T05:32:40.777Z,19520
2016-07-02T05:33:41.864Z,17696
2016-07-02T05:34:42.438Z,27648
2016-07-02T05:35:41.719Z,28800
2016-07-02T05:36:40.783Z,21856
2016-07-02T05:37:40.794Z,10836
2016-07-02T05:38:40.815Z,9828
2016-07-02T05:39:40.832Z,9188
2016-07-02T05:40:40.847Z,8708
2016-07-02T05:41:40.854Z,8628
2016-07-02T05:42:40.863Z,8720
2016-07-02T05:43:40.879Z,8536
2016-07-02T05:44:40.884Z,8564
2016-07-02T05:45:40.904Z,9212
2016-07-02T05:46:40.924Z,10240
2016-07-02T05:47:40.926Z,10976
2016-07-02T05:48:40.940Z,12256
2016-07-02T05:49:40.963Z,13368
2016-07-02T05:50:40.961Z,13796
2016-07-02T05:51:40.968Z,28960
2016-07-02T05:52:40.984Z,32512
2016-07-02T05:53:40.997Z,41792
2016-07-02T05:54:41.008Z,42816
2016-07-02T05:55:41.016Z,26112
2016-07-02T05:56:41.021Z,43776
2016-07-02T05:57:41.041Z,41952
2016-07-02T05:58:41.035Z,40864
2016-07-02T05:59:41.048Z,40960
2016-07-02T06:00:41.076Z,43168
2016-07-02T06:01:41.079Z,43392
2016-07-02T06:02:41.095Z,41088
2016-07-02T06:03:41.096Z,38336
2016-07-02T06:04:41.114Z,41792
2016-07-02T06:05:41.124Z,42048
2016-07-02T06:06:41.140Z,41184
2016-07-02T06:07:41.147Z,43712
2016-07-02T06:08:41.159Z,38816
2016-07-02T06:09:41.184Z,49728
2016-07-02T06:10:41.196Z,49312
2016-07-02T06:11:41.202Z,46400
2016-07-02T06:12:41.210Z,44992
2016-07-02T06:13:56.363Z,45728
2016-07-02T06:14:41.994Z,50464
2016-07-02T06:15:42.148Z,52096
2016-07-02T06:16:41.564Z,52064
2016-07-02T06:17:41.279Z,49568
2016-07-02T06:18:41.295Z,50336
2016-07-02T06:19:41.602Z,50112
2016-07-02T06:20:41.340Z,48928
2016-07-02T06:21:41.399Z,53248
2016-07-02T06:22:41.359Z,55936
2016-07-02T06:23:41.682Z,58464
2016-07-02T06:24:41.987Z,52736
2016-07-02T06:25:56.957Z,59968
2016-07-02T06:26:41.420Z,61248
2016-07-02T06:27:41.441Z,63744
2016-07-02T06:28:42.167Z,68640
2016-07-02T06:29:41.460Z,70336
2016-07-02T06:30:41.494Z,67968
2016-07-02T06:31:41.505Z,63872
2016-07-02T06:32:41.526Z,58816
2016-07-02T06:33:41.546Z,62880
2016-07-02T06:34:41.559Z,71904
2016-07-02T06:35:41.567Z,77344
2016-07-02T06:36:41.594Z,63936
2016-07-02T06:37:41.616Z,47712
2016-07-02T06:38:41.640Z,75456
2016-07-02T06:39:41.654Z,63776
2016-07-02T06:41:44.528Z,39616
2016-07-02T06:42:42.729Z,54080
2016-07-02T06:43:41.755Z,55936
2016-07-02T06:44:41.764Z,53344
2016-07-02T06:45:42.618Z,67008
2016-07-02T06:46:41.802Z,68448
2016-07-02T06:47:41.820Z,63264
2016-07-02T06:48:41.848Z,65024
2016-07-02T06:49:43.360Z,66432
2016-07-02T06:50:44.123Z,66400
2016-07-02T06:51:44.179Z,64128
2016-07-02T06:52:42.810Z,69344
2016-07-02T06:53:43.326Z,70464
2016-07-02T06:54:42.744Z,66208
2016-07-02T06:55:41.986Z,61728
2016-07-02T06:56:42.010Z,65952
2016-07-02T06:57:42.029Z,71424
2016-07-02T06:58:42.060Z,75584
2016-07-02T06:59:42.065Z,67904
2016-07-02T07:00:42.090Z,61760
2016-07-02T07:01:42.112Z,63584
2016-07-02T07:02:42.124Z,63104
2016-07-02T07:03:42.151Z,62240
2016-07-02T07:04:42.181Z,68032
2016-07-02T07:05:42.190Z,80288
2016-07-02T07:06:42.202Z,84224
2016-07-02T07:07:42.293Z,85280
2016-07-02T07:08:42.260Z,82624
2016-07-02T07:09:42.276Z,78592
2016-07-02T07:10:42.304Z,79744
2016-07-02T07:11:42.313Z,76128
2016-07-02T07:12:42.343Z,73152
2016-07-02T07:13:42.363Z,72480
2016-07-02T07:14:42.376Z,77376
2016-07-02T07:15:42.399Z,81600
2016-07-02T07:16:42.435Z,79360
2016-07-02T07:17:42.449Z,76384
2016-07-02T07:18:42.480Z,77632
2016-07-02T07:19:42.497Z,80704
2016-07-02T07:20:42.523Z,79360
2016-07-02T07:21:42.550Z,79936
2016-07-02T07:22:42.555Z,84256
2016-07-02T07:23:42.583Z,90752
2016-07-02T07:24:42.599Z,85600
2016-07-02T07:25:42.629Z,78080
2016-07-02T07:26:42.650Z,73376
2016-07-02T07:27:42.670Z,69600
2016-07-02T07:28:42.704Z,79168
2016-07-02T07:29:42.707Z,85792
2016-07-02T07:30:42.731Z,41472
2016-07-02T07:31:42.766Z,52448
2016-07-02T07:32:43.874Z,54496
2016-07-02T07:33:42.806Z,83232
2016-07-02T07:34:44.083Z,78432
2016-07-02T07:35:42.855Z,87200
2016-07-02T07:36:42.970Z,95072
2016-07-02T07:37:42.898Z,86624
2016-07-02T07:38:43.166Z,25824
2016-07-02T07:39:42.940Z,68320
2016-07-02T07:40:42.953Z,91680
2016-07-02T07:41:45.131Z,80768
2016-07-02T07:42:43.310Z,80160
2016-07-02T07:43:43.133Z,83840
2016-07-02T07:44:43.050Z,88064
2016-07-02T07:45:43.179Z,86144
2016-07-02T07:46:43.298Z,84000
2016-07-02T07:47:43.113Z,86304
2016-07-02T07:48:43.137Z,68224
2016-07-02T07:49:43.160Z,52608
2016-07-02T07:50:43.174Z,80000
2016-07-02T07:51:43.200Z,30432
2016-07-02T07:52:43.222Z,100576
2016-07-02T07:53:43.260Z,31840
2016-07-02T07:54:43.273Z,30528
2016-07-02T07:55:43.295Z,29728
2016-07-02T07:56:43.314Z,25952
2016-07-02T07:57:43.339Z,25216
2016-07-02T07:59:44.105Z,23136
2016-07-02T08:00:44.864Z,21152
2016-07-02T08:01:44.092Z,16256
2016-07-02T08:02:45.021Z,13788
2016-07-02T08:03:43.443Z,12392
2016-07-02T08:04:43.461Z,11368
2016-07-02T08:05:43.488Z,11212
2016-07-02T08:06:43.495Z,13572
2016-07-02T08:08:00.327Z,15496
2016-07-02T08:08:45.707Z,16256
2016-07-02T08:09:45.627Z,17856
2016-07-02T08:10:45.515Z,19264
2016-07-02T08:11:45.011Z,22304
2016-07-02T08:12:43.589Z,22656
2016-07-02T08:13:43.621Z,23520
2016-07-02T08:14:43.628Z,22240
2016-07-02T08:15:43.642Z,21344
2016-07-02T08:16:43.644Z,17120
2016-07-02T08:17:44.268Z,13752
2016-07-02T08:18:43.674Z,12632
2016-07-02T08:19:43.696Z,13704
2016-07-02T08:20:43.704Z,13880
2016-07-02T08:21:43.722Z,13880
2016-07-02T08:22:43.741Z,13408
2016-07-02T08:23:44.361Z,14828
2016-07-02T08:24:43.760Z,18240
2016-07-02T08:25:43.772Z,16032
2016-07-02T08:26:43.787Z,14772
2016-07-02T08:27:43.799Z,14180
2016-07-02T08:28:43.821Z,13980
2016-07-02T08:29:43.819Z,14300
2016-07-02T08:30:43.845Z,13564
2016-07-02T08:31:43.851Z,13124
2016-07-02T08:32:43.856Z,17376
2016-07-02T08:33:43.869Z,21536
2016-07-02T08:34:43.894Z,26464
2016-07-02T08:35:43.903Z,27168
2016-07-02T08:36:43.914Z,25376
2016-07-02T08:37:43.925Z,25248
2016-07-02T08:38:43.931Z,36512
2016-07-02T08:39:43.938Z,54624
2016-07-02T08:40:43.940Z,48992
2016-07-02T08:41:43.950Z,43040
2016-07-02T08:42:43.972Z,45280
2016-07-02T08:43:43.978Z,30400
2016-07-02T08:44:44.005Z,31328
2016-07-02T08:45:44.008Z,31264
2016-07-02T08:46:44.022Z,26176
2016-07-02T08:47:44.037Z,23200
2016-07-02T08:48:44.038Z,24000
2016-07-02T08:49:44.053Z,24416
2016-07-02T08:50:45.354Z,24256
2016-07-02T08:51:45.621Z,24512
2016-07-02T08:53:58.995Z,30560
2016-07-02T08:54:44.098Z,32576
2016-07-02T08:55:44.116Z,31808
2016-07-02T08:56:44.120Z,31520
2016-07-02T08:57:44.433Z,31968
2016-07-02T08:58:44.153Z,36640
2016-07-02T08:59:59.065Z,32192
2016-07-02T09:00:45.182Z,31680
2016-07-02T09:01:44.986Z,30784
2016-07-02T09:02:44.748Z,30848
2016-07-02T09:03:44.262Z,30176
2016-07-02T09:04:44.472Z,29920
2016-07-02T09:05:44.589Z,27488
2016-07-02T09:06:44.245Z,25728
2016-07-02T09:07:44.306Z,25696
2016-07-02T09:08:44.282Z,26720
2016-07-02T09:09:44.283Z,30688
2016-07-02T09:10:44.297Z,26528
2016-07-02T09:11:44.293Z,20864
2016-07-02T09:12:44.321Z,19456
2016-07-02T09:13:44.320Z,19360
2016-07-02T09:14:44.343Z,18688
2016-07-02T09:15:44.355Z,16896
2016-07-02T09:16:46.613Z,14072
2016-07-02T09:18:45.461Z,14336
2016-07-02T09:19:45.623Z,13744
2016-07-02T09:20:44.629Z,12352
2016-07-02T09:21:44.414Z,14536
2016-07-02T09:22:44.425Z,14444
2016-07-02T09:23:44.441Z,11664
2016-07-02T09:24:44.447Z,8576
2016-07-02T09:25:45.962Z,7120
2016-07-02T09:26:47.008Z,6344
2016-07-02T09:27:46.270Z,5948
2016-07-02T09:28:47.055Z,6440
2016-07-02T09:29:44.509Z,8008
2016-07-02T09:30:44.518Z,8436
2016-07-02T09:31:44.660Z,9108
2016-07-02T09:32:44.894Z,10292
2016-07-02T09:33:44.536Z,12024
2016-07-02T09:34:44.550Z,14300
2016-07-02T09:35:44.564Z,15828
2016-07-02T09:36:44.578Z,17856
2016-07-02T09:37:44.584Z,18560
2016-07-02T09:38:44.604Z,17984
2016-07-02T09:39:44.590Z,17312
2016-07-02T09:40:44.606Z,17440
2016-07-02T09:41:44.615Z,16736
2016-07-02T09:42:44.619Z,16448
2016-07-02T09:43:44.640Z,16768
2016-07-02T09:44:44.647Z,15880
2016-07-02T09:45:44.644Z,14748
2016-07-02T09:46:44.656Z,13156
2016-07-02T09:47:44.664Z,11908
2016-07-02T09:48:44.683Z,10972
2016-07-02T09:49:44.694Z,10184
2016-07-02T09:50:44.689Z,9988
2016-07-02T09:51:44.699Z,9736
2016-07-02T09:52:44.703Z,9392
2016-07-02T09:53:44.713Z,8876
2016-07-02T09:54:44.733Z,9240
2016-07-02T09:55:44.737Z,10812
2016-07-02T09:56:44.763Z,12156
2016-07-02T09:57:44.765Z,11344
2016-07-02T09:58:44.773Z,9896
2016-07-02T09:59:45.363Z,9416
2016-07-02T10:00:45.376Z,9212
2016-07-02T10:01:44.787Z,8372
2016-07-02T10:02:44.808Z,7084
2016-07-02T10:03:44.797Z,7132
2016-07-02T10:04:44.811Z,7340
2016-07-02T10:05:44.807Z,7164
2016-07-02T10:06:44.828Z,7532
2016-07-02T10:07:44.884Z,7924
2016-07-02T10:08:59.729Z,8340
2016-07-02T10:10:45.254Z,8144
2016-07-02T10:11:44.950Z,7220
2016-07-02T10:13:45.082Z,6256
2016-07-02T10:14:45.337Z,7436
2016-07-02T10:15:44.882Z,9328
2016-07-02T10:16:44.892Z,10964
2016-07-02T10:17:46.515Z,12120
2016-07-02T10:18:59.906Z,12608
2016-07-02T10:19:45.563Z,12828
2016-07-02T10:20:46.125Z,13464
2016-07-02T10:21:44.942Z,14156
2016-07-02T10:22:44.988Z,14412
2016-07-02T10:23:44.937Z,15088
2016-07-02T10:24:44.955Z,16176
2016-07-02T10:25:44.964Z,16672
2016-07-02T10:26:44.976Z,16736
2016-07-02T10:27:44.976Z,16320
2016-07-02T10:28:44.976Z,15644
2016-07-02T10:29:44.989Z,15192
2016-07-02T10:30:45.002Z,15992
2016-07-02T10:31:44.998Z,17056
2016-07-02T10:32:45.002Z,19520
2016-07-02T10:33:45.017Z,20032
2016-07-02T10:34:45.026Z,19392
2016-07-02T10:35:48.082Z,18304
2016-07-02T10:36:47.996Z,18176
2016-07-02T10:37:47.148Z,18272
2016-07-02T10:38:46.941Z,19168
2016-07-02T10:39:46.567Z,21952
2016-07-02T10:40:45.660Z,23776
2016-07-02T10:41:45.073Z,21632
2016-07-02T10:42:45.067Z,20000
2016-07-02T10:43:45.079Z,20448
2016-07-02T10:44:46.563Z,21568
2016-07-02T10:45:46.479Z,24224
2016-07-02T10:46:46.253Z,26752
2016-07-02T10:47:46.696Z,28416
2016-07-02T10:48:45.115Z,28640
2016-07-02T10:49:45.128Z,28768
2016-07-02T10:50:45.127Z,28608
2016-07-02T10:51:45.260Z,28416
2016-07-02T10:52:45.165Z,28000
2016-07-02T10:53:45.165Z,27136
2016-07-02T10:54:45.176Z,25984
2016-07-02T10:55:45.182Z,25056
2016-07-02T10:56:45.184Z,24384
2016-07-02T10:57:45.193Z,23008
2016-07-02T10:58:45.202Z,21408
2016-07-02T10:59:45.208Z,19840
2016-07-02T11:00:45.219Z,19296
2016-07-02T11:01:45.235Z,18656
2016-07-02T11:02:45.236Z,15288
2016-07-02T11:03:45.243Z,12092
2016-07-02T11:04:45.247Z,12088
2016-07-02T11:05:45.268Z,14044
2016-07-02T11:06:45.276Z,15276
2016-07-02T11:07:45.695Z,15788
2016-07-02T11:08:45.294Z,16896
2016-07-02T11:09:45.304Z,19232
2016-07-02T11:10:45.326Z,22592
2016-07-02T11:11:45.315Z,25600
2016-07-02T11:12:45.331Z,27360
2016-07-02T11:13:45.339Z,29088
2016-07-02T11:14:45.344Z,29760
2016-07-02T11:15:45.350Z,28256
2016-07-02T11:16:45.363Z,26912
2016-07-02T11:17:45.387Z,25760
2016-07-02T11:18:45.380Z,24384
2016-07-02T11:19:45.392Z,22784
2016-07-02T11:20:45.392Z,21088
2016-07-02T11:21:45.407Z,21152
2016-07-02T11:22:45.407Z,23104
2016-07-02T11:23:45.425Z,24032
2016-07-02T11:24:45.427Z,23232
2016-07-02T11:25:45.445Z,18432
2016-07-02T11:26:45.448Z,12552
2016-07-02T11:27:45.508Z,9904
2016-07-02T11:29:01.160Z,7904
2016-07-02T11:29:45.822Z,6948
2016-07-02T11:30:45.480Z,6224
2016-07-02T11:31:45.933Z,5632
2016-07-02T11:32:45.512Z,5328
2016-07-02T11:33:45.506Z,5592
2016-07-02T11:34:45.509Z,6320
2016-07-02T11:35:45.509Z,6712
2016-07-02T11:36:46.377Z,6256
2016-07-02T11:37:46.183Z,5644
2016-07-02T11:38:46.386Z,5608
2016-07-02T11:39:46.396Z,6436
2016-07-02T11:40:46.496Z,6968
2016-07-02T11:41:46.366Z,7228
2016-07-02T11:42:45.566Z,7676
2016-07-02T11:43:45.564Z,8032
2016-07-02T11:44:45.577Z,8244
2016-07-02T11:45:45.590Z,8060
2016-07-02T11:46:45.583Z,6884
2016-07-02T11:47:45.597Z,6508
2016-07-02T11:48:45.605Z,7012
2016-07-02T11:49:45.609Z,6696
2016-07-02T11:50:45.602Z,5164
2016-07-02T11:51:45.609Z,4236
2016-07-02T11:52:45.607Z,4376
2016-07-02T11:53:47.635Z,4760
2016-07-02T11:54:48.583Z,4540
2016-07-02T11:55:45.622Z,4272
2016-07-02T11:56:47.388Z,4548
2016-07-02T11:57:45.636Z,5040
2016-07-02T11:58:45.636Z,5620
2016-07-02T11:59:45.643Z,6152
2016-07-02T12:00:45.644Z,6672
2016-07-02T12:01:45.645Z,7352
2016-07-02T12:02:46.050Z,8260
2016-07-02T12:03:47.224Z,9408
2016-07-02T12:04:48.138Z,10376
2016-07-02T12:05:47.312Z,11364
2016-07-02T12:06:45.650Z,11752
2016-07-02T12:07:46.020Z,12528
2016-07-02T12:08:45.662Z,12116
2016-07-02T12:09:45.658Z,11600
2016-07-02T12:10:45.654Z,10664
2016-07-02T12:11:45.652Z,9652
2016-07-02T12:12:45.657Z,10228
2016-07-02T12:13:45.664Z,10712
2016-07-02T12:14:45.667Z,11400
2016-07-02T12:15:45.659Z,11796
2016-07-02T12:16:45.665Z,11748
2016-07-02T12:17:45.664Z,10340
2016-07-02T12:18:45.674Z,8764
2016-07-02T12:19:46.264Z,7760
2016-07-02T12:20:45.687Z,6544
2016-07-02T12:21:45.671Z,6144
2016-07-02T12:22:45.677Z,6004
2016-07-02T12:23:45.675Z,5952
2016-07-02T12:24:45.686Z,5680
2016-07-02T12:25:45.671Z,5696
2016-07-02T12:26:45.690Z,4964
2016-07-02T12:27:45.669Z,4620
2016-07-02T12:28:45.697Z,4596
2016-07-02T12:29:45.693Z,4656
2016-07-02T12:30:45.690Z,4652
2016-07-02T12:31:45.703Z,4360
2016-07-02T12:32:45.689Z,4300
2016-07-02T12:33:45.685Z,4836
2016-07-02T12:34:45.690Z,5220
2016-07-02T12:35:45.694Z,5496
2016-07-02T12:36:45.677Z,5492
2016-07-02T12:37:45.683Z,5116
2016-07-02T12:38:45.683Z,5120
2016-07-02T12:39:45.687Z,5592
2016-07-02T12:40:45.692Z,5320
2016-07-02T12:41:45.698Z,4704
2016-07-02T12:42:45.698Z,4276
2016-07-02T12:43:45.689Z,4544
2016-07-02T12:44:45.696Z,4900
2016-07-02T12:45:46.140Z,4384
2016-07-02T12:47:16.289Z,5624
2016-07-02T12:47:46.494Z,6284
2016-07-02T12:48:46.146Z,7364
2016-07-02T12:49:46.200Z,7460
2016-07-02T12:51:00.696Z,6760
2016-07-02T12:51:45.903Z,6872
2016-07-02T12:52:45.711Z,7780
2016-07-02T12:53:45.694Z,9196
2016-07-02T12:54:46.756Z,10692
2016-07-02T12:55:46.561Z,11640
2016-07-02T12:57:00.593Z,11544
2016-07-02T12:58:45.719Z,9680
2016-07-02T12:59:45.751Z,9224
2016-07-02T13:00:45.700Z,10132
2016-07-02T13:01:45.700Z,11704
2016-07-02T13:02:45.711Z,12368
2016-07-02T13:03:45.700Z,13040
2016-07-02T13:04:45.709Z,13424
2016-07-02T13:05:45.712Z,13892
2016-07-02T13:06:45.710Z,14240
2016-07-02T13:07:45.747Z,14904
2016-07-02T13:08:45.717Z,14940
2016-07-02T13:09:45.704Z,14340
2016-07-02T13:10:46.306Z,13212
2016-07-02T13:11:47.108Z,11944
2016-07-02T13:12:48.753Z,10488
2016-07-02T13:13:46.570Z,9712
2016-07-02T13:14:46.382Z,9256
2016-07-02T13:15:45.863Z,8768
2016-07-02T13:16:46.298Z,8520
2016-07-02T13:17:46.319Z,8792
2016-07-02T13:18:45.717Z,9240
2016-07-02T13:19:45.726Z,9500
2016-07-02T13:21:46.989Z,10044
2016-07-02T13:22:45.721Z,10324
2016-07-02T13:23:45.883Z,10508
2016-07-02T13:24:45.788Z,10488
2016-07-02T13:25:46.720Z,10336
2016-07-02T13:26:45.734Z,9936
2016-07-02T13:27:45.726Z,9588
2016-07-02T13:28:45.849Z,9180
2016-07-02T13:29:45.738Z,9080
2016-07-02T13:30:45.738Z,9232
2016-07-02T13:31:45.731Z,9304
2016-07-02T13:32:45.719Z,9312
2016-07-02T13:33:45.725Z,8996
2016-07-02T13:34:45.737Z,8688
2016-07-02T13:35:45.733Z,8740
2016-07-02T13:36:45.737Z,8976
2016-07-02T13:37:45.735Z,9308